Time;durP1;ratioP1;P1;durP2;ratioP2;P2;SDS_P1;SDS_P2;PMS_P1;PMS_P2;Temp;Humidity;BMP_temperature;BMP_pressure;BME280_temperature;BME280_humidity;BME280_pressure;Samples;Min_cycle;Max_cycle;Signal;HPM_P1;HPM_P2
2022/08/27 00:02:08;;;;;;;6.37;3.53;;;15.60;99.90;;;;;;6039377;23;20244;-62
2022/08/27 00:04:38;;;;;;;4.67;3.60;;;15.50;99.90;;;;;;6037102;23;20170;-62
2022/08/27 00:07:07;;;;;;;3.37;3.17;;;15.50;99.90;;;;;;6065323;23;20636;-62
2022/08/27 00:09:36;;;;;;;6.20;3.20;;;15.50;99.90;;;;;;6066168;23;20194;-62
2022/08/27 00:12:07;;;;;;;6.07;3.40;;;15.40;99.90;;;;;;6062816;23;20858;-62
2022/08/27 00:14:37;;;;;;;6.80;3.50;;;15.40;99.90;;;;;;6063369;23;20189;-62
2022/08/27 00:17:07;;;;;;;4.83;3.17;;;15.30;99.90;;;;;;6064436;23;20250;-62
2022/08/27 00:19:36;;;;;;;8.80;3.40;;;15.30;99.90;;;;;;6064351;23;20673;-62
2022/08/27 00:22:08;;;;;;;6.33;3.50;;;15.30;99.90;;;;;;6063840;23;20194;-62
2022/08/27 00:24:37;;;;;;;5.73;3.17;;;15.30;99.90;;;;;;6066512;23;20154;-62
2022/08/27 00:27:16;;;;;;;7.50;3.50;;;15.20;99.90;;;;;;6065690;23;20177;-62
2022/08/27 00:29:45;;;;;;;6.03;3.73;;;15.20;99.90;;;;;;6066854;23;20180;-62
2022/08/27 00:32:15;;;;;;;4.40;3.60;;;15.10;99.90;;;;;;6066109;23;20631;-61
2022/08/27 00:34:44;;;;;;;6.27;3.27;;;15.10;99.90;;;;;;6066872;23;20281;-62
2022/08/27 00:37:12;;;;;;;5.70;3.13;;;15.00;99.90;;;;;;6066266;23;20198;-62
2022/08/27 00:39:43;;;;;;;4.33;3.00;;;15.00;99.90;;;;;;6066989;23;20205;-62
2022/08/27 00:42:11;;;;;;;7.93;3.20;;;14.90;99.90;;;;;;6066697;23;20171;-62
2022/08/27 00:44:39;;;;;;;7.40;4.13;;;14.80;99.90;;;;;;6065793;23;20248;-62
2022/08/27 00:47:13;;;;;;;5.87;3.60;;;14.80;99.90;;;;;;6040320;23;20243;-61
2022/08/27 00:49:47;;;;;;;4.50;3.50;;;14.70;99.90;;;;;;6066111;23;20168;-61
2022/08/27 00:52:21;;;;;;;3.67;3.30;;;14.70;99.90;;;;;;6065866;23;20219;-61
2022/08/27 00:54:51;;;;;;;3.60;3.30;;;14.70;99.90;;;;;;6066324;23;20192;-61
2022/08/27 00:57:20;;;;;;;7.20;3.37;;;14.60;99.90;;;;;;6066322;23;20292;-62
2022/08/27 00:59:49;;;;;;;5.00;3.10;;;14.60;99.90;;;;;;6065602;23;20251;-61
2022/08/27 01:02:20;;;;;;;3.37;3.03;;;14.60;99.90;;;;;;6067219;23;20270;-62
2022/08/27 01:04:54;;;;;;;6.53;3.33;;;14.50;99.90;;;;;;6040792;23;20169;-61
2022/08/27 01:07:24;;;;;;;7.90;3.33;;;14.40;99.90;;;;;;6065633;23;20586;-62
2022/08/27 01:09:59;;;;;;;4.07;3.30;;;14.40;99.90;;;;;;6066183;23;20173;-61
2022/08/27 01:12:30;;;;;;;3.93;3.33;;;14.40;99.90;;;;;;6066640;23;20247;-62
2022/08/27 01:14:59;;;;;;;5.13;3.33;;;14.30;99.90;;;;;;6039939;23;20291;-62
2022/08/27 01:17:28;;;;;;;5.40;3.87;;;14.30;99.90;;;;;;6066456;23;20243;-62
2022/08/27 01:20:03;;;;;;;4.37;3.60;;;14.30;99.90;;;;;;6066221;23;20251;-62
2022/08/27 01:22:41;;;;;;;6.73;3.57;;;14.20;99.90;;;;;;6039399;23;20201;-61
2022/08/27 01:25:15;;;;;;;3.87;3.47;;;14.20;99.90;;;;;;6066553;23;20193;-61
2022/08/27 01:27:44;;;;;;;5.03;3.40;;;14.10;99.90;;;;;;6040343;23;20185;-61
2022/08/27 01:30:16;;;;;;;3.53;3.20;;;14.00;99.90;;;;;;6040321;23;20575;-62
2022/08/27 01:32:48;;;;;;;4.60;3.30;;;14.00;99.90;;;;;;6066151;23;20160;-61
2022/08/27 01:35:19;;;;;;;7.33;3.50;;;13.90;99.90;;;;;;6066351;23;20216;-61
2022/08/27 01:37:49;;;;;;;8.07;4.10;;;13.90;99.90;;;;;;6065181;23;20666;-61
2022/08/27 01:40:21;;;;;;;5.93;3.70;;;13.90;99.90;;;;;;6066232;23;20243;-61
2022/08/27 01:42:51;;;;;;;5.40;3.80;;;13.90;99.90;;;;;;6066842;23;20203;-62
2022/08/27 01:45:24;;;;;;;4.60;3.87;;;13.90;99.90;;;;;;6064994;23;20216;-61
2022/08/27 01:47:52;;;;;;;4.67;3.70;;;13.80;99.90;;;;;;6066247;23;20190;-62
2022/08/27 01:50:23;;;;;;;13.47;3.80;;;13.80;99.90;;;;;;6065650;23;20244;-62
2022/08/27 01:52:53;;;;;;;4.10;3.67;;;13.80;99.90;;;;;;6065550;23;20175;-62
2022/08/27 01:55:26;;;;;;;3.97;3.57;;;13.70;99.90;;;;;;6065066;23;20219;-62
2022/08/27 01:57:55;;;;;;;6.23;3.40;;;13.70;99.90;;;;;;6065647;23;20188;-62
2022/08/27 02:00:27;;;;;;;9.20;3.70;;;13.70;99.90;;;;;;6066022;23;20532;-61
2022/08/27 02:02:57;;;;;;;4.70;4.10;;;13.70;99.90;;;;;;6066328;23;20429;-61
2022/08/27 02:05:26;;;;;;;7.10;4.33;;;13.70;99.90;;;;;;6063720;23;20260;-61
2022/08/27 02:07:55;;;;;;;8.77;4.07;;;13.70;99.90;;;;;;6063971;23;20595;-61
2022/08/27 02:10:29;;;;;;;4.60;4.00;;;13.70;99.90;;;;;;6065868;23;20235;-61
2022/08/27 02:12:57;;;;;;;5.30;3.67;;;13.60;99.90;;;;;;6065478;23;20196;-61
2022/08/27 02:15:28;;;;;;;6.40;3.57;;;13.50;99.90;;;;;;6065317;23;20260;-61
2022/08/27 02:17:56;;;;;;;4.30;3.90;;;13.50;99.90;;;;;;6040051;23;20256;-61
2022/08/27 02:20:27;;;;;;;5.53;3.67;;;13.50;99.90;;;;;;6064018;23;20216;-61
2022/08/27 02:22:56;;;;;;;4.80;3.90;;;13.40;99.90;;;;;;6065540;23;20267;-61
2022/08/27 02:25:27;;;;;;;5.77;4.10;;;13.40;99.90;;;;;;6064350;23;20589;-61
2022/08/27 02:27:58;;;;;;;7.23;4.23;;;13.40;99.90;;;;;;6065713;23;20239;-62
2022/08/27 02:30:30;;;;;;;5.33;3.83;;;13.40;99.90;;;;;;6065105;23;20553;-61
2022/08/27 02:33:00;;;;;;;4.33;3.83;;;13.40;99.90;;;;;;6064177;23;20598;-62
2022/08/27 02:35:30;;;;;;;5.00;4.50;;;13.30;99.90;;;;;;6064942;23;20195;-61
2022/08/27 02:38:00;;;;;;;5.77;5.13;;;13.30;99.90;;;;;;6065130;23;20172;-62
2022/08/27 02:40:30;;;;;;;7.23;4.43;;;13.30;99.90;;;;;;6065017;23;20606;-62
2022/08/27 02:42:59;;;;;;;7.03;4.63;;;13.30;99.90;;;;;;6038980;23;20152;-62
2022/08/27 02:45:28;;;;;;;5.47;4.60;;;13.30;99.90;;;;;;6065404;23;20239;-61
2022/08/27 02:47:56;;;;;;;6.57;4.77;;;13.30;99.90;;;;;;6064182;23;20232;-62
2022/08/27 02:50:25;;;;;;;6.80;4.50;;;13.30;99.90;;;;;;6065016;23;20255;-62
2022/08/27 02:52:54;;;;;;;5.73;4.30;;;13.20;99.90;;;;;;6038720;23;20168;-61
2022/08/27 02:55:23;;;;;;;7.43;4.30;;;13.20;99.90;;;;;;6065253;23;20211;-61
2022/08/27 02:57:53;;;;;;;8.67;4.43;;;13.20;99.90;;;;;;6065092;23;20270;-61
2022/08/27 03:00:23;;;;;;;6.03;5.00;;;13.20;99.90;;;;;;6064391;23;20251;-61
2022/08/27 03:02:51;;;;;;;6.60;5.20;;;13.20;99.90;;;;;;6065004;23;20260;-61
2022/08/27 03:05:20;;;;;;;6.03;5.03;;;13.30;99.90;;;;;;6065292;23;20634;-61
2022/08/27 03:07:49;;;;;;;8.20;4.90;;;13.40;99.90;;;;;;6063623;23;20175;-61
2022/08/27 03:10:19;;;;;;;7.50;4.80;;;13.40;99.90;;;;;;6065427;23;20250;-61
2022/08/27 03:12:49;;;;;;;12.10;5.13;;;13.40;99.90;;;;;;6063585;23;20175;-61
2022/08/27 03:15:19;;;;;;;7.97;4.93;;;13.40;99.90;;;;;;6039943;23;20196;-61
2022/08/27 03:20:39;;;;;;;7.57;5.13;;;13.30;99.90;;;;;;6064545;23;20530;-61
2022/08/27 03:23:08;;;;;;;6.33;4.90;;;13.30;99.90;;;;;;6064161;23;20239;-61
2022/08/27 03:25:38;;;;;;;8.77;5.63;;;13.30;99.90;;;;;;6065206;23;20692;-61
2022/08/27 03:28:06;;;;;;;8.73;5.50;;;13.20;99.90;;;;;;6064962;23;20259;-62
2022/08/27 03:30:53;;;;;;;10.10;6.23;;;13.20;99.90;;;;;;6064708;23;20210;-61
2022/08/27 03:33:21;;;;;;;7.87;5.73;;;13.20;99.90;;;;;;6065704;23;20172;-61
2022/08/27 03:35:50;;;;;;;7.40;5.40;;;13.10;99.90;;;;;;6038276;23;20820;-61
2022/08/27 03:38:20;;;;;;;7.57;5.27;;;13.10;99.90;;;;;;6064725;23;20207;-61
2022/08/27 03:40:49;;;;;;;7.90;5.93;;;13.10;99.90;;;;;;6065068;23;20246;-61
2022/08/27 03:43:19;;;;;;;7.13;5.83;;;13.00;99.90;;;;;;6065224;23;20542;-62
2022/08/27 03:45:48;;;;;;;6.57;5.53;;;13.00;99.90;;;;;;6064963;23;20192;-61
2022/08/27 03:48:31;;;;;;;6.37;5.33;;;13.00;99.90;;;;;;6064539;23;20175;-61
2022/08/27 03:51:05;;;;;;;6.23;5.80;;;12.90;99.90;;;;;;6065079;23;20172;-62
2022/08/27 03:53:35;;;;;;;9.80;5.80;;;12.90;99.90;;;;;;6064335;23;20243;-61
2022/08/27 03:56:05;;;;;;;6.10;5.60;;;12.90;99.90;;;;;;6065071;23;20258;-62
2022/08/27 03:58:33;;;;;;;8.23;5.37;;;12.90;99.90;;;;;;6064560;23;20238;-61
2022/08/27 04:01:02;;;;;;;9.87;5.33;;;12.80;99.90;;;;;;6063180;23;20683;-61
2022/08/27 04:03:34;;;;;;;7.63;5.77;;;12.80;99.90;;;;;;6063290;23;20629;-62
2022/08/27 04:06:03;;;;;;;7.20;6.03;;;12.70;99.90;;;;;;6039696;23;20518;-61
2022/08/27 04:08:31;;;;;;;9.23;6.27;;;12.70;99.90;;;;;;6064397;23;20258;-61
2022/08/27 04:11:00;;;;;;;6.63;5.87;;;12.70;99.90;;;;;;6063172;23;20176;-61
2022/08/27 04:13:28;;;;;;;9.13;5.93;;;12.70;99.90;;;;;;6038819;23;20184;-61
2022/08/27 04:15:57;;;;;;;7.40;6.07;;;12.70;99.90;;;;;;6039218;23;20191;-61
2022/08/27 04:18:25;;;;;;;11.07;5.70;;;12.70;99.90;;;;;;6064920;23;20176;-62
2022/08/27 04:20:56;;;;;;;6.17;5.50;;;12.70;99.90;;;;;;6038776;23;20251;-61
2022/08/27 04:23:25;;;;;;;8.57;6.00;;;12.70;99.90;;;;;;6014369;23;20255;-61
2022/08/27 04:25:56;;;;;;;7.13;5.83;;;12.70;99.90;;;;;;6065168;23;20533;-61
2022/08/27 04:28:24;;;;;;;10.77;6.40;;;12.60;99.90;;;;;;6039217;23;20179;-61
2022/08/27 04:30:53;;;;;;;7.63;6.00;;;12.60;99.90;;;;;;6039468;23;20207;-61
2022/08/27 04:33:22;;;;;;;7.63;5.70;;;12.60;99.90;;;;;;6064497;23;20175;-61
2022/08/27 04:35:59;;;;;;;6.07;5.30;;;12.50;99.90;;;;;;6064039;23;20632;-61
2022/08/27 04:38:27;;;;;;;5.83;5.23;;;12.50;99.90;;;;;;6064897;23;20263;-61
2022/08/27 04:43:42;;;;;;;7.70;5.53;;;12.50;99.90;;;;;;6038828;23;20538;-61
2022/08/27 04:46:10;;;;;;;9.63;6.63;;;12.50;99.90;;;;;;6039554;23;20548;-61
2022/08/27 04:48:39;;;;;;;9.20;5.60;;;12.50;99.90;;;;;;6064044;23;20204;-61
2022/08/27 04:51:08;;;;;;;7.30;5.07;;;12.50;99.90;;;;;;6064389;23;20554;-61
2022/08/27 04:53:41;;;;;;;7.93;5.30;;;12.40;99.90;;;;;;6064474;23;20597;-61
2022/08/27 04:56:14;;;;;;;9.77;5.30;;;12.40;99.90;;;;;;6063440;23;20271;-61
2022/08/27 04:58:43;;;;;;;8.07;5.80;;;12.40;99.90;;;;;;6064709;23;20185;-62
2022/08/27 05:01:17;;;;;;;10.93;5.77;;;12.30;99.90;;;;;;6062994;23;20199;-62
2022/08/27 05:03:45;;;;;;;11.17;5.33;;;12.30;99.90;;;;;;6063959;23;20175;-61
2022/08/27 05:06:16;;;;;;;9.50;5.03;;;12.30;99.90;;;;;;6064427;23;20168;-61
2022/08/27 05:08:44;;;;;;;7.30;5.20;;;12.30;99.90;;;;;;6063116;23;20218;-61
2022/08/27 05:11:14;;;;;;;6.30;4.57;;;12.30;99.90;;;;;;6063563;23;20169;-61
2022/08/27 05:13:43;;;;;;;7.50;5.33;;;12.30;99.90;;;;;;6066858;23;20247;-61
2022/08/27 05:16:14;;;;;;;7.67;5.73;;;12.30;99.90;;;;;;6066536;23;20243;-61
2022/08/27 05:18:43;;;;;;;7.13;6.43;;;12.30;99.90;;;;;;6065792;23;20168;-61
2022/08/27 05:21:21;;;;;;;10.03;6.43;;;12.40;99.90;;;;;;6065287;23;20216;-61
2022/08/27 05:23:50;;;;;;;11.30;7.53;;;12.50;99.90;;;;;;6065843;23;20255;-61
2022/08/27 05:26:19;;;;;;;9.97;6.33;;;12.50;99.90;;;;;;6064635;23;20275;-61
2022/08/27 05:28:47;;;;;;;9.67;5.80;;;12.50;99.90;;;;;;6066203;23;20208;-61
2022/08/27 05:31:17;;;;;;;7.40;5.20;;;12.50;99.90;;;;;;6065419;23;20251;-61
2022/08/27 05:33:46;;;;;;;9.00;5.47;;;12.40;99.90;;;;;;6065892;23;20628;-61
2022/08/27 05:36:18;;;;;;;7.20;5.20;;;12.40;99.90;;;;;;6040132;23;20180;-61
2022/08/27 05:38:49;;;;;;;10.13;6.03;;;12.40;99.90;;;;;;6065758;23;20161;-61
2022/08/27 05:41:20;;;;;;;9.03;6.23;;;12.40;99.90;;;;;;6038501;23;20216;-61
2022/08/27 05:43:48;;;;;;;7.27;5.77;;;12.40;99.90;;;;;;6064437;23;20255;-61
2022/08/27 05:46:20;;;;;;;8.53;6.37;;;12.50;99.90;;;;;;6065042;23;20165;-61
2022/08/27 05:48:49;;;;;;;8.27;6.63;;;12.70;99.90;;;;;;6065160;23;20216;-62
2022/08/27 05:51:20;;;;;;;10.67;7.13;;;12.80;99.90;;;;;;6063873;23;20176;-61
2022/08/27 05:53:57;;;;;;;10.60;7.30;;;13.00;99.90;;;;;;6063168;23;20183;-61
2022/08/27 05:56:27;;;;;;;12.20;6.93;;;13.10;99.90;;;;;;6064429;23;20672;-61
2022/08/27 06:01:45;;;;;;;11.30;7.13;;;13.50;99.90;;;;;;6065711;23;20165;-61
2022/08/27 06:04:18;;;;;;;9.17;7.63;;;13.70;99.90;;;;;;6039756;23;20184;-61
2022/08/27 06:06:48;;;;;;;10.17;7.60;;;13.90;99.90;;;;;;6066202;23;20195;-62
2022/08/27 06:09:20;;;;;;;9.33;7.57;;;14.00;99.90;;;;;;6065304;23;20263;-61
2022/08/27 06:11:49;;;;;;;8.67;7.47;;;14.30;99.90;;;;;;6065691;23;20519;-61
2022/08/27 06:14:17;;;;;;;11.10;9.03;;;14.40;99.90;;;;;;6066490;23;20193;-61
2022/08/27 06:16:47;;;;;;;10.97;8.20;;;14.60;99.90;;;;;;6065715;23;20179;-61
2022/08/27 06:19:16;;;;;;;10.23;7.90;;;14.70;99.90;;;;;;6065249;23;20173;-61
2022/08/27 06:21:44;;;;;;;12.20;8.13;;;14.90;99.90;;;;;;6065089;23;20225;-62
2022/08/27 06:24:13;;;;;;;11.40;8.03;;;15.10;99.90;;;;;;6064632;23;20255;-61
2022/08/27 06:26:44;;;;;;;9.70;7.57;;;15.20;99.90;;;;;;6065351;23;20934;-61
2022/08/27 06:29:13;;;;;;;8.03;7.17;;;15.40;99.90;;;;;;6065782;23;20170;-61
2022/08/27 06:31:42;;;;;;;11.40;7.17;;;15.50;99.90;;;;;;6040177;23;20169;-62
2022/08/27 06:34:11;;;;;;;11.37;7.13;;;15.70;99.90;;;;;;6039654;23;20202;-61
2022/08/27 06:36:41;;;;;;;10.80;7.07;;;15.80;99.90;;;;;;6065930;23;20173;-61
2022/08/27 06:39:14;;;;;;;12.23;6.97;;;15.90;99.90;;;;;;6065978;23;20225;-61
2022/08/27 06:41:49;;;;;;;9.67;5.93;;;16.00;99.90;;;;;;6065333;23;20508;-61
2022/08/27 06:44:17;;;;;;;7.53;6.53;;;16.10;99.90;;;;;;6066164;23;20603;-61
2022/08/27 06:46:45;;;;;;;8.13;6.20;;;16.10;99.90;;;;;;6064363;23;20173;-61
2022/08/27 06:49:14;;;;;;;8.60;5.90;;;16.20;99.90;;;;;;6038819;23;20685;-62
2022/08/27 06:51:46;;;;;;;7.63;5.50;;;16.40;99.90;;;;;;6065850;23;20603;-62
2022/08/27 06:54:18;;;;;;;7.10;5.50;;;16.50;99.90;;;;;;6065473;23;20200;-61
2022/08/27 06:56:48;;;;;;;13.53;5.13;;;16.70;99.90;;;;;;6040329;23;20514;-62
2022/08/27 06:59:19;;;;;;;6.50;4.73;;;16.90;99.90;;;;;;6039899;23;20215;-62
2022/08/27 07:01:50;;;;;;;5.47;4.23;;;17.10;99.90;;;;;;6064719;23;20230;-62
2022/08/27 07:04:21;;;;;;;4.37;3.97;;;17.30;99.90;;;;;;6065379;23;20169;-62
2022/08/27 07:06:57;;;;;;;7.90;4.13;;;17.40;99.90;;;;;;6065367;23;20834;-62
2022/08/27 07:09:26;;;;;;;6.80;3.77;;;17.70;99.90;;;;;;6063761;23;20726;-62
2022/08/27 07:11:59;;;;;;;5.80;3.40;;;17.90;99.90;;;;;;6039033;23;20172;-61
2022/08/27 07:14:28;;;;;;;3.90;3.10;;;18.20;99.90;;;;;;6065655;23;20175;-62
2022/08/27 07:17:02;;;;;;;9.17;3.50;;;18.60;99.90;;;;;;6064156;23;20183;-62
2022/08/27 07:19:31;;;;;;;7.00;3.60;;;18.70;99.90;;;;;;6037858;23;20282;-62
2022/08/27 07:22:00;;;;;;;8.60;3.90;;;18.80;99.90;;;;;;6063406;23;20168;-62
2022/08/27 07:24:28;;;;;;;4.70;3.10;;;18.80;99.90;;;;;;6065822;23;20176;-62
2022/08/27 07:26:58;;;;;;;7.63;3.60;;;19.00;99.90;;;;;;6064486;23;20275;-62
2022/08/27 07:29:27;;;;;;;6.67;3.77;;;19.10;99.90;;;;;;6064595;23;20224;-62
2022/08/27 07:31:59;;;;;;;5.43;3.40;;;19.30;99.90;;;;;;6062623;23;20168;-62
2022/08/27 07:34:28;;;;;;;5.50;3.10;;;19.50;99.90;;;;;;6039078;23;20255;-62
2022/08/27 07:36:58;;;;;;;9.70;3.27;;;19.60;99.90;;;;;;6038317;23;20168;-62
2022/08/27 07:39:28;;;;;;;9.40;3.33;;;19.90;99.90;;;;;;6064246;23;20274;-63
2022/08/27 07:44:44;;;;;;;5.90;3.10;;;20.20;99.90;;;;;;6064125;23;20187;-63
2022/08/27 07:47:12;;;;;;;4.70;2.70;;;20.40;99.90;;;;;;6063459;23;20247;-62
2022/08/27 07:49:42;;;;;;;6.73;2.77;;;20.60;99.90;;;;;;6062819;23;20216;-63
2022/08/27 07:52:11;;;;;;;5.37;2.77;;;20.80;99.90;;;;;;6064472;23;20696;-62
2022/08/27 07:54:40;;;;;;;6.17;3.00;;;21.00;99.90;;;;;;6039803;23;20168;-62
2022/08/27 07:57:11;;;;;;;10.90;3.13;;;21.00;99.90;;;;;;6062061;23;20172;-62
2022/08/27 07:59:40;;;;;;;5.63;2.73;;;21.10;99.90;;;;;;6062630;23;20187;-62
2022/08/27 08:02:08;;;;;;;4.33;2.40;;;21.20;99.90;;;;;;6062487;23;20694;-62
2022/08/27 08:04:37;;;;;;;4.10;2.00;;;21.30;99.90;;;;;;6035641;23;20168;-62
2022/08/27 08:07:05;;;;;;;2.73;2.00;;;21.20;99.90;;;;;;6064825;23;20206;-62
2022/08/27 08:09:33;;;;;;;8.27;2.10;;;21.20;99.90;;;;;;6063846;23;20243;-62
2022/08/27 08:12:02;;;;;;;3.77;2.17;;;21.30;99.90;;;;;;6039210;23;20168;-62
2022/08/27 08:14:32;;;;;;;6.07;2.20;;;21.40;99.90;;;;;;6039343;23;20633;-62
2022/08/27 08:17:01;;;;;;;5.30;1.80;;;21.30;99.90;;;;;;6062650;23;20172;-62
2022/08/27 08:19:32;;;;;;;6.07;2.10;;;21.10;99.90;;;;;;6065252;23;20212;-62
2022/08/27 08:22:00;;;;;;;3.60;2.07;;;21.10;99.90;;;;;;6037333;23;20620;-62
2022/08/27 08:24:33;;;;;;;3.20;1.73;;;21.30;99.90;;;;;;6064727;23;20198;-62
2022/08/27 08:27:02;;;;;;;3.70;1.80;;;21.20;99.90;;;;;;6006526;23;20639;-62
2022/08/27 08:29:37;;;;;;;5.07;1.90;;;21.20;99.90;;;;;;6004668;23;20876;-62
2022/08/27 08:32:06;;;;;;;4.40;1.73;;;21.20;99.90;;;;;;6004555;23;20476;-61
2022/08/27 08:34:35;;;;;;;2.93;1.93;;;21.20;99.90;;;;;;6006921;23;20615;-62
2022/08/27 08:37:05;;;;;;;3.73;1.53;;;21.30;99.90;;;;;;6004662;23;20177;-61
2022/08/27 08:39:33;;;;;;;3.10;1.90;;;21.60;99.90;;;;;;6008220;23;20282;-62
2022/08/27 08:42:05;;;;;;;4.57;2.13;;;22.00;99.90;;;;;;6004367;23;20178;-62
2022/08/27 08:44:41;;;;;;;4.30;2.10;;;22.40;99.90;;;;;;6006194;23;20603;-62
2022/08/27 08:47:14;;;;;;;4.97;1.70;;;22.70;99.90;;;;;;6008355;23;20242;-62
2022/08/27 08:49:49;;;;;;;6.77;2.20;;;23.00;99.90;;;;;;6009311;23;20171;-62
2022/08/27 08:52:40;;;;;;;4.30;1.87;;;23.30;99.90;;;;;;6006819;23;20210;-61
2022/08/27 08:55:17;;;;;;;3.53;2.00;;;23.40;99.90;;;;;;6008788;23;20266;-62
2022/08/27 08:57:50;;;;;;;5.80;2.20;;;23.50;99.90;;;;;;6009605;23;20327;-62
2022/08/27 09:00:20;;;;;;;2.93;1.87;;;23.60;99.90;;;;;;6009055;23;20193;-62
2022/08/27 09:02:54;;;;;;;6.80;2.30;;;23.60;99.90;;;;;;6008711;23;20251;-62
2022/08/27 09:05:24;;;;;;;3.07;2.00;;;23.60;99.90;;;;;;6008597;23;20195;-62
2022/08/27 09:08:05;;;;;;;6.67;2.00;;;23.70;99.90;;;;;;6008844;23;20183;-62
2022/08/27 09:11:03;;;;;;;2.33;1.60;;;23.80;99.90;;;;;;6008398;23;20158;-62
2022/08/27 09:13:36;;;;;;;3.63;1.93;;;23.90;99.90;;;;;;6005691;23;20177;-62
2022/08/27 09:16:06;;;;;;;4.50;1.70;;;23.80;99.90;;;;;;6006634;23;20806;-62
2022/08/27 09:18:37;;;;;;;2.23;1.67;;;24.00;99.90;;;;;;6004722;23;20249;-62
2022/08/27 09:21:18;;;;;;;4.33;1.60;;;24.00;99.90;;;;;;6006263;23;20170;-62
2022/08/27 09:24:03;;;;;;;2.77;1.90;;;24.00;99.90;;;;;;6006740;23;20169;-62
2022/08/27 09:26:35;;;;;;;3.47;1.80;;;24.20;99.90;;;;;;6006936;23;20720;-62
2022/08/27 09:29:18;;;;;;;3.23;1.70;;;24.40;99.90;;;;;;6009055;23;20234;-62
2022/08/27 09:31:54;;;;;;;2.03;1.70;;;24.60;99.90;;;;;;6009003;23;20273;-62
2022/08/27 09:34:24;;;;;;;2.83;1.50;;;24.80;99.90;;;;;;6008580;23;20170;-62
2022/08/27 09:37:02;;;;;;;3.20;1.50;;;25.10;99.90;;;;;;5982375;23;20174;-62
2022/08/27 09:39:42;;;;;;;2.25;1.80;;;25.20;99.90;;;;;;6009117;23;20220;-62
2022/08/27 09:42:25;;;;;;;1.73;1.60;;;25.30;99.90;;;;;;6008131;23;20242;-62
2022/08/27 09:44:54;;;;;;;2.92;1.55;;;25.50;99.90;;;;;;6007646;23;20166;-62
2022/08/27 09:47:25;;;;;;;2.63;1.90;;;25.70;99.90;;;;;;6007457;23;20168;-62
2022/08/27 09:50:07;;;;;;;5.05;1.70;;;25.70;99.90;;;;;;6007085;23;20229;-62
2022/08/27 09:52:47;;;;;;;3.08;1.55;;;25.80;99.90;;;;;;6005748;23;20254;-62
2022/08/27 09:55:27;;;;;;;6.10;2.10;;;25.90;99.90;;;;;;6008445;23;20245;-62
2022/08/27 09:57:56;;;;;;;1.98;1.77;;;26.00;99.90;;;;;;6005910;23;20182;-62
2022/08/27 10:00:35;;;;;;;3.70;1.70;;;26.20;99.90;;;;;;6004580;23;20259;-62
2022/08/27 10:03:09;;;;;;;3.42;1.80;;;26.40;99.90;;;;;;6008192;23;20490;-62
2022/08/27 10:05:42;;;;;;;2.85;2.00;;;26.40;99.90;;;;;;6007319;23;20186;-62
2022/08/27 10:08:22;;;;;;;4.07;1.80;;;26.40;99.90;;;;;;6007910;23;20171;-62
2022/08/27 10:10:56;;;;;;;2.75;2.10;;;26.40;99.90;;;;;;6007188;23;20551;-62
2022/08/27 10:13:32;;;;;;;3.25;2.00;;;26.80;99.90;;;;;;6008218;23;20271;-62
2022/08/27 10:16:23;;;;;;;7.50;1.67;;;26.80;99.90;;;;;;6006676;23;20226;-62
2022/08/27 10:19:01;;;;;;;3.08;2.10;;;25.90;99.90;;;;;;6004878;23;20656;-62
2022/08/27 10:21:38;;;;;;;4.05;1.80;;;25.40;99.90;;;;;;6006186;23;20277;-62
2022/08/27 10:24:21;;;;;;;8.03;1.90;;;24.90;99.90;;;;;;6006551;23;20197;-62
2022/08/27 10:27:02;;;;;;;4.67;1.70;;;24.50;99.90;;;;;;6006661;23;20202;-62
2022/08/27 10:29:38;;;;;;;4.03;1.80;;;24.20;99.90;;;;;;6007129;23;20188;-62
2022/08/27 10:32:19;;;;;;;2.63;1.50;;;24.00;99.90;;;;;;6007135;23;20204;-62
2022/08/27 10:35:03;;;;;;;5.37;1.70;;;23.90;99.90;;;;;;6006688;23;20272;-61
2022/08/27 10:37:41;;;;;;;3.10;1.80;;;24.00;99.90;;;;;;6004682;23;20174;-62
2022/08/27 10:40:18;;;;;;;3.97;1.73;;;23.90;99.90;;;;;;6007054;23;20214;-62
2022/08/27 10:42:55;;;;;;;3.70;1.63;;;23.80;99.90;;;;;;6005992;23;20280;-61
2022/08/27 10:45:40;;;;;;;2.73;2.00;;;23.70;99.90;;;;;;6006580;23;20256;-61
2022/08/27 10:48:23;;;;;;;3.27;1.60;;;23.50;99.90;;;;;;6008506;23;20255;-61
2022/08/27 10:51:00;;;;;;;2.87;2.00;;;23.40;99.90;;;;;;6007348;23;20229;-61
2022/08/27 10:53:35;;;;;;;2.07;1.83;;;23.50;99.90;;;;;;6007728;23;20509;-61
2022/08/27 10:56:13;;;;;;;3.10;1.83;;;23.50;99.90;;;;;;6007799;23;20247;-61
2022/08/27 10:58:54;;;;;;;1.80;1.70;;;23.50;99.90;;;;;;6008037;23;20295;-61
2022/08/27 11:01:31;;;;;;;1.80;1.70;;;23.50;99.90;;;;;;6005059;23;20306;-61
2022/08/27 11:04:05;;;;;;;1.80;1.70;;;23.50;99.90;;;;;;6008348;23;20539;-61
2022/08/27 11:06:38;;;;;;;2.77;1.60;;;23.60;99.90;;;;;;6007487;23;20160;-61
2022/08/27 11:09:13;;;;;;;3.23;1.80;;;23.70;99.90;;;;;;6031424;23;20169;-61
2022/08/27 11:11:45;;;;;;;1.80;1.70;;;23.90;99.90;;;;;;6008700;23;20234;-62
2022/08/27 11:14:37;;;;;;;1.63;1.53;;;24.10;99.90;;;;;;6008817;23;20178;-61
2022/08/27 11:17:11;;;;;;;2.83;1.47;;;24.50;99.90;;;;;;6007524;23;20178;-62
2022/08/27 11:19:49;;;;;;;2.03;1.90;;;24.60;99.90;;;;;;6008380;23;20199;-62
2022/08/27 11:22:29;;;;;;;2.53;1.77;;;24.70;99.90;;;;;;6005292;23;20272;-62
2022/08/27 11:25:06;;;;;;;1.97;1.53;;;24.70;99.90;;;;;;6011521;23;20174;-61
2022/08/27 11:27:36;;;;;;;2.53;1.73;;;24.80;99.90;;;;;;6065574;23;20310;-62
2022/08/27 11:30:09;;;;;;;3.93;1.80;;;24.80;99.90;;;;;;6064956;23;20247;-61
2022/08/27 11:32:48;;;;;;;2.17;1.93;;;24.80;99.90;;;;;;6065275;23;20164;-62
2022/08/27 11:35:21;;;;;;;3.20;2.00;;;24.60;99.90;;;;;;6064579;23;20247;-61
2022/08/27 11:38:16;;;;;;;2.30;1.60;;;24.70;99.90;;;;;;6064837;23;20183;-61
2022/08/27 11:41:06;;;;;;;5.30;2.03;;;24.50;99.90;;;;;;6039933;23;20196;-62
2022/08/27 11:43:36;;;;;;;4.63;2.00;;;24.60;99.90;;;;;;6064257;23;20318;-62
2022/08/27 11:46:08;;;;;;;1.93;1.80;;;24.90;99.90;;;;;;6040639;23;20263;-62
2022/08/27 11:48:40;;;;;;;4.93;1.87;;;25.50;99.90;;;;;;6063843;23;20727;-62
2022/08/27 11:51:13;;;;;;;2.58;1.80;;;26.40;99.90;;;;;;6064372;23;20162;-62
2022/08/27 11:54:00;;;;;;;4.07;1.90;;;26.90;99.90;;;;;;6063537;23;20177;-62
2022/08/27 11:56:40;;;;;;;2.47;1.80;;;26.50;99.90;;;;;;6038996;23;20248;-62
2022/08/27 11:59:20;;;;;;;3.63;2.33;;;26.10;99.90;;;;;;6063611;23;20582;-62
2022/08/27 12:01:51;;;;;;;4.50;2.10;;;25.00;99.90;;;;;;6063744;23;20192;-62
2022/08/27 12:04:33;;;;;;;7.60;2.33;;;24.30;99.90;;;;;;6065373;23;20183;-62
2022/08/27 12:07:05;;;;;;;4.73;2.13;;;23.90;99.90;;;;;;6040054;23;20603;-62
2022/08/27 12:09:54;;;;;;;2.27;2.10;;;23.40;99.90;;;;;;6039674;23;20250;-62
2022/08/27 12:12:32;;;;;;;2.57;2.00;;;23.30;99.90;;;;;;6064624;23;20171;-62
2022/08/27 12:15:05;;;;;;;4.60;2.20;;;23.40;99.90;;;;;;6065141;23;20253;-62
2022/08/27 12:17:42;;;;;;;2.93;2.13;;;23.40;99.90;;;;;;6065568;23;20249;-62
2022/08/27 12:20:22;;;;;;;2.40;2.20;;;23.30;99.90;;;;;;6065292;23;20252;-62
2022/08/27 12:25:58;;;;;;;4.80;2.40;;;23.00;99.90;;;;;;6065776;23;20280;-62
2022/08/27 12:28:27;;;;;;;5.10;2.37;;;23.10;99.90;;;;;;6064518;23;20208;-62
2022/08/27 12:30:57;;;;;;;4.63;2.53;;;23.00;99.90;;;;;;6039187;23;20205;-61
2022/08/27 12:33:30;;;;;;;3.03;2.23;;;22.90;99.90;;;;;;6065900;23;20168;-62
2022/08/27 12:36:06;;;;;;;4.90;2.67;;;22.80;99.90;;;;;;6066113;23;20252;-62
2022/08/27 12:38:44;;;;;;;3.23;2.40;;;22.80;99.90;;;;;;6066111;23;20257;-62
2022/08/27 12:41:27;;;;;;;3.07;2.57;;;23.00;99.90;;;;;;6067184;23;20193;-62
2022/08/27 12:44:07;;;;;;;4.00;2.17;;;23.30;99.90;;;;;;6040403;23;20171;-62
2022/08/27 12:46:45;;;;;;;5.80;2.20;;;23.50;99.90;;;;;;6016595;23;20510;-62
2022/08/27 12:49:17;;;;;;;2.67;2.30;;;23.80;99.90;;;;;;6066181;23;20262;-62
2022/08/27 12:52:18;;;;;;;2.50;2.10;;;24.10;99.90;;;;;;6064767;23;20609;-62
2022/08/27 12:55:01;;;;;;;6.27;2.60;;;24.50;99.90;;;;;;6064719;23;20262;-62
2022/08/27 12:57:37;;;;;;;2.43;2.23;;;24.70;99.90;;;;;;6064149;23;20777;-62
2022/08/27 13:00:09;;;;;;;2.20;2.00;;;24.70;99.90;;;;;;6066212;23;20196;-62
2022/08/27 13:03:13;;;;;;;2.30;2.10;;;24.50;99.90;;;;;;6066206;23;20239;-62
2022/08/27 13:05:44;;;;;;;2.30;2.07;;;24.50;99.90;;;;;;6066873;23;20243;-62
2022/08/27 13:08:22;;;;;;;2.40;2.17;;;24.50;99.90;;;;;;6064974;23;20274;-62
2022/08/27 13:10:51;;;;;;;4.03;2.00;;;24.50;99.90;;;;;;6066891;23;20600;-62
2022/08/27 13:13:24;;;;;;;5.20;2.37;;;24.40;99.90;;;;;;6066395;23;20701;-62
2022/08/27 13:15:55;;;;;;;2.67;2.10;;;24.20;99.90;;;;;;6041117;23;20249;-62
2022/08/27 13:18:24;;;;;;;2.37;2.10;;;24.30;99.90;;;;;;6065970;23;20158;-62
2022/08/27 13:21:02;;;;;;;2.73;1.97;;;24.60;99.90;;;;;;6065724;23;20186;-62
2022/08/27 13:23:31;;;;;;;2.10;1.90;;;24.80;99.90;;;;;;6066191;23;20262;-62
2022/08/27 13:26:05;;;;;;;4.83;2.30;;;24.80;99.90;;;;;;6063833;23;20713;-62
2022/08/27 13:28:37;;;;;;;2.67;2.30;;;24.90;99.90;;;;;;6038563;23;20258;-62